sensor_id;sensor_type;location;lat;lon;timestamp;pressure;altitude;pressure_sealevel;temperature;humidity
64086;BME280;50333;47.436;21.390;2022-11-20T00:02:31;100255.69;;;3.32;76.82
64086;BME280;50333;47.436;21.390;2022-11-20T00:06:03;100261.28;;;2.86;77.39
64086;BME280;50333;47.436;21.390;2022-11-20T00:09:12;100269.41;;;3.08;76.64
64086;BME280;50333;47.436;21.390;2022-11-20T00:12:20;100300.97;;;3.21;77.04
64086;BME280;50333;47.436;21.390;2022-11-20T00:15:28;100300.12;;;3.09;77.00
64086;BME280;50333;47.436;21.390;2022-11-20T00:18:37;100299.38;;;3.64;75.94
64086;BME280;50333;47.436;21.390;2022-11-20T00:21:45;100315.50;;;2.91;77.32
64086;BME280;50333;47.436;21.390;2022-11-20T00:25:13;100310.06;;;2.80;78.79
64086;BME280;50333;47.436;21.390;2022-11-20T00:28:21;100302.56;;;3.23;77.42
64086;BME280;50333;47.436;21.390;2022-11-20T00:31:48;100297.50;;;3.53;75.54
64086;BME280;50333;47.436;21.390;2022-11-20T00:34:56;100308.88;;;3.45;76.43
64086;BME280;50333;47.436;21.390;2022-11-20T00:38:24;100325.69;;;3.48;76.19
64086;BME280;50333;47.436;21.390;2022-11-20T00:41:32;100316.88;;;3.92;74.97
64086;BME280;50333;47.436;21.390;2022-11-20T00:45:00;100311.34;;;3.15;76.39
64086;BME280;50333;47.436;21.390;2022-11-20T00:47:49;100283.12;;;3.45;76.80
64086;BME280;50333;47.436;21.390;2022-11-20T00:51:21;100294.75;;;3.11;78.03
64086;BME280;50333;47.436;21.390;2022-11-20T00:54:30;100300.34;;;3.45;76.43
64086;BME280;50333;47.436;21.390;2022-11-20T00:57:58;100305.78;;;3.18;76.88
64086;BME280;50333;47.436;21.390;2022-11-20T01:01:14;100320.41;;;3.43;76.56
64086;BME280;50333;47.436;21.390;2022-11-20T01:04:45;100305.53;;;3.01;78.72
64086;BME280;50333;47.436;21.390;2022-11-20T01:07:52;100298.78;;;3.62;76.31
64086;BME280;50333;47.436;21.390;2022-11-20T01:11:09;100299.81;;;3.91;75.36
64086;BME280;50333;47.436;21.390;2022-11-20T01:14:19;100302.50;;;3.29;77.73
64086;BME280;50333;47.436;21.390;2022-11-20T01:17:48;100281.88;;;3.11;77.96
64086;BME280;50333;47.436;21.390;2022-11-20T01:21:04;100280.78;;;3.18;77.34
64086;BME280;50333;47.436;21.390;2022-11-20T01:24:16;100272.06;;;3.19;78.17
64086;BME280;50333;47.436;21.390;2022-11-20T01:27:24;100271.06;;;4.06;75.31
64086;BME280;50333;47.436;21.390;2022-11-20T01:30:53;100284.81;;;4.00;75.25
64086;BME280;50333;47.436;21.390;2022-11-20T01:34:05;100288.56;;;4.04;74.97
64086;BME280;50333;47.436;21.390;2022-11-20T01:37:36;100289.84;;;3.95;74.99
64086;BME280;50333;47.436;21.390;2022-11-20T01:40:44;100267.44;;;4.38;73.80
64086;BME280;50333;47.436;21.390;2022-11-20T01:43:53;100274.56;;;3.82;74.03
64086;BME280;50333;47.436;21.390;2022-11-20T01:47:03;100269.47;;;4.05;74.67
64086;BME280;50333;47.436;21.390;2022-11-20T01:53:26;100257.75;;;4.09;74.28
64086;BME280;50333;47.436;21.390;2022-11-20T01:56:42;100260.19;;;3.37;76.04
64086;BME280;50333;47.436;21.390;2022-11-20T01:59:58;100252.97;;;3.46;76.43
64086;BME280;50333;47.436;21.390;2022-11-20T02:03:12;100239.97;;;3.71;75.67
64086;BME280;50333;47.436;21.390;2022-11-20T02:06:48;100231.78;;;3.44;77.15
64086;BME280;50333;47.436;21.390;2022-11-20T02:09:57;100226.50;;;3.69;76.69
64086;BME280;50333;47.436;21.390;2022-11-20T02:13:25;100221.91;;;3.40;76.72
64086;BME280;50333;47.436;21.390;2022-11-20T02:16:38;100220.72;;;3.55;76.96
64086;BME280;50333;47.436;21.390;2022-11-20T02:20:08;100225.97;;;3.48;77.83
64086;BME280;50333;47.436;21.390;2022-11-20T02:27:14;100227.00;;;3.77;77.01
64086;BME280;50333;47.436;21.390;2022-11-20T02:30:22;100218.00;;;3.68;76.78
64086;BME280;50333;47.436;21.390;2022-11-20T02:32:52;100200.13;;;3.97;75.91
64086;BME280;50333;47.436;21.390;2022-11-20T02:36:00;100200.09;;;3.43;78.29
64086;BME280;50333;47.436;21.390;2022-11-20T02:39:11;100185.25;;;3.69;77.80
64086;BME280;50333;47.436;21.390;2022-11-20T02:42:20;100175.94;;;3.98;77.04
64086;BME280;50333;47.436;21.390;2022-11-20T02:45:10;100179.91;;;3.21;79.50
64086;BME280;50333;47.436;21.390;2022-11-20T02:48:19;100182.87;;;3.07;81.19
64086;BME280;50333;47.436;21.390;2022-11-20T02:51:47;100164.88;;;3.37;80.26
64086;BME280;50333;47.436;21.390;2022-11-20T02:54:56;100168.78;;;3.39;80.70
64086;BME280;50333;47.436;21.390;2022-11-20T02:58:26;100170.53;;;3.27;81.23
64086;BME280;50333;47.436;21.390;2022-11-20T03:01:34;100177.47;;;3.45;78.57
64086;BME280;50333;47.436;21.390;2022-11-20T03:05:03;100170.41;;;3.52;78.89
64086;BME280;50333;47.436;21.390;2022-11-20T03:07:50;100155.25;;;2.95;81.06
64086;BME280;50333;47.436;21.390;2022-11-20T03:11:04;100142.69;;;3.66;79.26
64086;BME280;50333;47.436;21.390;2022-11-20T03:14:13;100135.69;;;3.06;79.99
64086;BME280;50333;47.436;21.390;2022-11-20T03:17:42;100140.28;;;3.53;79.18
64086;BME280;50333;47.436;21.390;2022-11-20T03:20:49;100152.50;;;4.00;77.33
64086;BME280;50333;47.436;21.390;2022-11-20T03:24:18;100140.19;;;3.29;78.62
64086;BME280;50333;47.436;21.390;2022-11-20T03:27:25;100141.78;;;3.12;79.81
64086;BME280;50333;47.436;21.390;2022-11-20T03:30:34;100152.09;;;3.12;80.39
64086;BME280;50333;47.436;21.390;2022-11-20T03:33:43;100158.69;;;2.89;80.99
64086;BME280;50333;47.436;21.390;2022-11-20T03:36:53;100158.03;;;3.43;79.32
64086;BME280;50333;47.436;21.390;2022-11-20T03:39:46;100161.94;;;4.18;76.55
64086;BME280;50333;47.436;21.390;2022-11-20T03:43:12;100166.19;;;4.00;76.45
64086;BME280;50333;47.436;21.390;2022-11-20T03:46:20;100168.31;;;4.03;76.39
64086;BME280;50333;47.436;21.390;2022-11-20T03:49:29;100161.03;;;4.00;75.77
64086;BME280;50333;47.436;21.390;2022-11-20T03:52:19;100170.34;;;3.59;77.35
64086;BME280;50333;47.436;21.390;2022-11-20T03:55:45;100176.44;;;3.46;77.89
64086;BME280;50333;47.436;21.390;2022-11-20T03:58:55;100183.44;;;3.57;78.09
64086;BME280;50333;47.436;21.390;2022-11-20T04:02:05;100165.22;;;3.40;78.57
64086;BME280;50333;47.436;21.390;2022-11-20T04:05:36;100166.81;;;3.42;77.94
64086;BME280;50333;47.436;21.390;2022-11-20T04:08:28;100174.38;;;3.36;78.87
64086;BME280;50333;47.436;21.390;2022-11-20T04:11:57;100164.59;;;3.27;78.96
64086;BME280;50333;47.436;21.390;2022-11-20T04:15:06;100156.44;;;3.60;77.65
64086;BME280;50333;47.436;21.390;2022-11-20T04:18:35;100167.00;;;3.40;78.39
64086;BME280;50333;47.436;21.390;2022-11-20T04:21:44;100158.13;;;3.36;79.23
64086;BME280;50333;47.436;21.390;2022-11-20T04:24:52;100152.09;;;3.12;79.45
64086;BME280;50333;47.436;21.390;2022-11-20T04:27:39;100148.72;;;2.74;81.21
64086;BME280;50333;47.436;21.390;2022-11-20T04:30:28;100145.00;;;3.07;80.70
64086;BME280;50333;47.436;21.390;2022-11-20T04:33:16;100144.66;;;3.04;80.40
64086;BME280;50333;47.436;21.390;2022-11-20T04:36:44;100140.31;;;3.34;79.60
64086;BME280;50333;47.436;21.390;2022-11-20T04:39:53;100145.31;;;2.80;80.61
64086;BME280;50333;47.436;21.390;2022-11-20T04:43:10;100146.72;;;3.13;80.09
64086;BME280;50333;47.436;21.390;2022-11-20T04:46:20;100131.59;;;3.35;79.34
64086;BME280;50333;47.436;21.390;2022-11-20T04:49:29;100136.25;;;3.08;81.04
64086;BME280;50333;47.436;21.390;2022-11-20T04:52:39;100147.94;;;2.92;81.13
64086;BME280;50333;47.436;21.390;2022-11-20T04:55:49;100155.19;;;3.51;78.93
64086;BME280;50333;47.436;21.390;2022-11-20T04:59:00;100148.16;;;3.39;79.21
64086;BME280;50333;47.436;21.390;2022-11-20T05:02:30;100142.34;;;3.63;77.83
64086;BME280;50333;47.436;21.390;2022-11-20T05:05:38;100139.19;;;3.61;77.97
64086;BME280;50333;47.436;21.390;2022-11-20T05:09:03;100141.84;;;3.96;76.78
64086;BME280;50333;47.436;21.390;2022-11-20T05:11:51;100142.03;;;3.83;76.47
64086;BME280;50333;47.436;21.390;2022-11-20T05:15:10;100133.03;;;3.13;79.96
64086;BME280;50333;47.436;21.390;2022-11-20T05:18:14;100122.13;;;2.99;80.09
64086;BME280;50333;47.436;21.390;2022-11-20T05:21:43;100118.19;;;2.59;81.90
64086;BME280;50333;47.436;21.390;2022-11-20T05:24:31;100108.59;;;3.04;80.71
64086;BME280;50333;47.436;21.390;2022-11-20T05:27:58;100107.03;;;3.02;80.07
64086;BME280;50333;47.436;21.390;2022-11-20T05:30:47;100109.28;;;3.29;78.60
64086;BME280;50333;47.436;21.390;2022-11-20T05:33:56;100113.19;;;3.32;79.35
64086;BME280;50333;47.436;21.390;2022-11-20T05:36:44;100118.56;;;3.61;77.66
64086;BME280;50333;47.436;21.390;2022-11-20T05:40:13;100118.78;;;3.59;77.95
64086;BME280;50333;47.436;21.390;2022-11-20T05:43:02;100104.66;;;3.62;77.69
64086;BME280;50333;47.436;21.390;2022-11-20T05:46:14;100114.53;;;3.34;78.15
64086;BME280;50333;47.436;21.390;2022-11-20T05:49:22;100114.06;;;3.56;78.04
64086;BME280;50333;47.436;21.390;2022-11-20T05:52:31;100120.53;;;3.47;77.44
64086;BME280;50333;47.436;21.390;2022-11-20T05:55:38;100117.84;;;3.53;78.53
64086;BME280;50333;47.436;21.390;2022-11-20T05:58:29;100106.91;;;3.58;76.65
64086;BME280;50333;47.436;21.390;2022-11-20T06:01:37;100097.81;;;3.67;77.03
64086;BME280;50333;47.436;21.390;2022-11-20T06:04:35;100087.97;;;3.64;77.14
64086;BME280;50333;47.436;21.390;2022-11-20T06:07:40;100086.75;;;3.78;76.42
64086;BME280;50333;47.436;21.390;2022-11-20T06:10:39;100097.53;;;3.33;78.46
64086;BME280;50333;47.436;21.390;2022-11-20T06:13:48;100092.81;;;3.30;79.38
64086;BME280;50333;47.436;21.390;2022-11-20T06:17:16;100077.91;;;3.32;78.50
64086;BME280;50333;47.436;21.390;2022-11-20T06:20:24;100083.38;;;3.66;77.84
64086;BME280;50333;47.436;21.390;2022-11-20T06:23:34;100085.28;;;2.80;79.81
64086;BME280;50333;47.436;21.390;2022-11-20T06:26:44;100089.31;;;3.25;78.98
64086;BME280;50333;47.436;21.390;2022-11-20T06:29:55;100082.94;;;2.78;80.96
64086;BME280;50333;47.436;21.390;2022-11-20T06:32:45;100087.91;;;3.40;78.70
64086;BME280;50333;47.436;21.390;2022-11-20T06:35:57;100088.91;;;3.82;77.24
64086;BME280;50333;47.436;21.390;2022-11-20T06:38:50;100103.81;;;3.91;76.25
64086;BME280;50333;47.436;21.390;2022-11-20T06:42:15;100105.41;;;4.04;76.25
64086;BME280;50333;47.436;21.390;2022-11-20T06:45:23;100120.75;;;3.15;78.43
64086;BME280;50333;47.436;21.390;2022-11-20T06:48:14;100114.81;;;3.87;76.86
64086;BME280;50333;47.436;21.390;2022-11-20T06:51:22;100128.50;;;3.99;76.10
64086;BME280;50333;47.436;21.390;2022-11-20T06:54:50;100132.84;;;3.75;76.47
64086;BME280;50333;47.436;21.390;2022-11-20T06:57:58;100134.91;;;4.20;75.51
64086;BME280;50333;47.436;21.390;2022-11-20T07:01:09;100134.91;;;4.08;76.17
64086;BME280;50333;47.436;21.390;2022-11-20T07:04:17;100137.22;;;3.86;76.11
64086;BME280;50333;47.436;21.390;2022-11-20T07:07:29;100139.16;;;4.03;75.22
64086;BME280;50333;47.436;21.390;2022-11-20T07:10:01;100123.91;;;4.25;74.26
64086;BME280;50333;47.436;21.390;2022-11-20T07:12:53;100122.69;;;4.39;73.24
64086;BME280;50333;47.436;21.390;2022-11-20T07:15:49;100119.41;;;4.44;73.11
64086;BME280;50333;47.436;21.390;2022-11-20T07:18:38;100101.91;;;4.58;72.86
64086;BME280;50333;47.436;21.390;2022-11-20T07:21:26;100093.38;;;4.45;73.23
64086;BME280;50333;47.436;21.390;2022-11-20T07:24:54;100095.84;;;3.93;75.34
64086;BME280;50333;47.436;21.390;2022-11-20T07:27:42;100104.41;;;4.17;74.72
64086;BME280;50333;47.436;21.390;2022-11-20T07:31:11;100108.66;;;4.11;75.61
64086;BME280;50333;47.436;21.390;2022-11-20T07:34:05;100107.88;;;4.11;75.03
64086;BME280;50333;47.436;21.390;2022-11-20T07:37:34;100114.50;;;4.30;74.99
64086;BME280;50333;47.436;21.390;2022-11-20T07:40:43;100115.56;;;4.82;73.22
64086;BME280;50333;47.436;21.390;2022-11-20T07:43:35;100126.06;;;4.40;74.17
64086;BME280;50333;47.436;21.390;2022-11-20T07:46:42;100132.81;;;4.41;74.98
64086;BME280;50333;47.436;21.390;2022-11-20T07:50:13;100110.19;;;4.71;73.61
64086;BME280;50333;47.436;21.390;2022-11-20T07:53:21;100124.69;;;4.37;73.91
64086;BME280;50333;47.436;21.390;2022-11-20T07:56:12;100122.44;;;4.64;73.22
64086;BME280;50333;47.436;21.390;2022-11-20T07:59:21;100120.53;;;4.60;73.38
64086;BME280;50333;47.436;21.390;2022-11-20T08:02:15;100113.66;;;4.77;72.97
64086;BME280;50333;47.436;21.390;2022-11-20T08:05:45;100117.25;;;4.76;73.25
64086;BME280;50333;47.436;21.390;2022-11-20T08:08:33;100109.88;;;4.09;75.78
64086;BME280;50333;47.436;21.390;2022-11-20T08:11:29;100132.56;;;4.54;75.37
64086;BME280;50333;47.436;21.390;2022-11-20T08:14:53;100122.34;;;4.59;75.64
64086;BME280;50333;47.436;21.390;2022-11-20T08:17:43;100111.91;;;4.42;76.24
64086;BME280;50333;47.436;21.390;2022-11-20T08:20:51;100110.50;;;4.75;75.22
64086;BME280;50333;47.436;21.390;2022-11-20T08:23:20;100133.75;;;4.75;75.55
64086;BME280;50333;47.436;21.390;2022-11-20T08:26:08;100143.66;;;5.19;74.56
64086;BME280;50333;47.436;21.390;2022-11-20T08:28:57;100132.13;;;4.98;74.52
64086;BME280;50333;47.436;21.390;2022-11-20T08:31:27;100127.97;;;5.37;73.90
64086;BME280;50333;47.436;21.390;2022-11-20T08:34:55;100132.31;;;5.65;73.19
64086;BME280;50333;47.436;21.390;2022-11-20T08:38:05;100134.72;;;5.55;72.87
64086;BME280;50333;47.436;21.390;2022-11-20T08:41:33;100131.03;;;5.97;72.30
64086;BME280;50333;47.436;21.390;2022-11-20T08:44:26;100130.22;;;5.79;71.52
64086;BME280;50333;47.436;21.390;2022-11-20T08:47:22;100142.53;;;5.72;71.71
64086;BME280;50333;47.436;21.390;2022-11-20T08:50:50;100144.53;;;5.53;72.47
64086;BME280;50333;47.436;21.390;2022-11-20T08:53:39;100149.50;;;5.43;72.64
64086;BME280;50333;47.436;21.390;2022-11-20T08:57:07;100148.50;;;5.90;71.44
64086;BME280;50333;47.436;21.390;2022-11-20T09:00:15;100150.66;;;5.64;72.00
64086;BME280;50333;47.436;21.390;2022-11-20T09:03:24;100143.75;;;5.98;71.94
64086;BME280;50333;47.436;21.390;2022-11-20T09:06:34;100138.75;;;5.63;72.60
64086;BME280;50333;47.436;21.390;2022-11-20T09:10:03;100141.25;;;6.03;71.53
64086;BME280;50333;47.436;21.390;2022-11-20T09:13:12;100146.97;;;6.06;71.48
64086;BME280;50333;47.436;21.390;2022-11-20T09:16:04;100158.50;;;5.98;72.47
64086;BME280;50333;47.436;21.390;2022-11-20T09:18:52;100170.47;;;6.55;70.60
64086;BME280;50333;47.436;21.390;2022-11-20T09:22:00;100170.13;;;6.68;70.33
64086;BME280;50333;47.436;21.390;2022-11-20T09:25:09;100170.47;;;6.55;70.00
64086;BME280;50333;47.436;21.390;2022-11-20T09:28:18;100172.00;;;6.73;69.25
64086;BME280;50333;47.436;21.390;2022-11-20T09:31:17;100157.59;;;7.04;69.40
64086;BME280;50333;47.436;21.390;2022-11-20T09:34:47;100162.84;;;7.09;69.08
64086;BME280;50333;47.436;21.390;2022-11-20T09:37:37;100163.81;;;6.81;69.54
64086;BME280;50333;47.436;21.390;2022-11-20T09:40:56;100165.50;;;6.92;69.32
64086;BME280;50333;47.436;21.390;2022-11-20T09:44:18;100174.41;;;7.24;68.47
64086;BME280;50333;47.436;21.390;2022-11-20T09:47:25;100181.91;;;7.20;68.70
64086;BME280;50333;47.436;21.390;2022-11-20T09:57:36;100178.00;;;7.17;67.74
64086;BME280;50333;47.436;21.390;2022-11-20T10:00:50;100161.25;;;6.64;68.71
64086;BME280;50333;47.436;21.390;2022-11-20T10:10:41;100149.88;;;5.63;72.25
64086;BME280;50333;47.436;21.390;2022-11-20T10:13:51;100139.34;;;6.16;71.57
64086;BME280;50333;47.436;21.390;2022-11-20T10:17:08;100157.34;;;5.77;72.16
64086;BME280;50333;47.436;21.390;2022-11-20T10:20:17;100145.44;;;6.44;70.92
64086;BME280;50333;47.436;21.390;2022-11-20T10:23:30;100159.97;;;6.11;71.87
64086;BME280;50333;47.436;21.390;2022-11-20T10:26:54;100174.75;;;6.66;70.77
64086;BME280;50333;47.436;21.390;2022-11-20T10:30:26;100171.41;;;7.10;69.07
64086;BME280;50333;47.436;21.390;2022-11-20T10:33:35;100155.19;;;7.20;68.77
64086;BME280;50333;47.436;21.390;2022-11-20T10:37:10;100156.66;;;7.37;67.98
64086;BME280;50333;47.436;21.390;2022-11-20T10:43:32;100156.97;;;7.41;67.81
64086;BME280;50333;47.436;21.390;2022-11-20T10:46:22;100150.25;;;7.45;68.45
64086;BME280;50333;47.436;21.390;2022-11-20T10:49:33;100147.06;;;7.65;67.82
64086;BME280;50333;47.436;21.390;2022-11-20T10:52:54;100139.94;;;7.83;67.03
64086;BME280;50333;47.436;21.390;2022-11-20T10:55:40;100140.00;;;7.88;66.80
64086;BME280;50333;47.436;21.390;2022-11-20T11:01:42;100150.62;;;7.86;66.67
64086;BME280;50333;47.436;21.390;2022-11-20T11:07:58;100143.66;;;6.66;71.20
64086;BME280;50333;47.436;21.390;2022-11-20T11:10:57;100134.28;;;7.04;70.42
64086;BME280;50333;47.436;21.390;2022-11-20T11:14:12;100132.66;;;6.76;72.87
64086;BME280;50333;47.436;21.390;2022-11-20T11:17:32;100125.63;;;7.21;71.23
64086;BME280;50333;47.436;21.390;2022-11-20T11:20:23;100127.66;;;7.41;70.78
64086;BME280;50333;47.436;21.390;2022-11-20T11:23:39;100136.22;;;7.68;69.55
64086;BME280;50333;47.436;21.390;2022-11-20T11:26:56;100139.53;;;7.96;68.44
64086;BME280;50333;47.436;21.390;2022-11-20T11:29:45;100126.81;;;7.95;69.61
64086;BME280;50333;47.436;21.390;2022-11-20T11:33:05;100125.34;;;8.09;67.41
64086;BME280;50333;47.436;21.390;2022-11-20T11:38:52;100138.06;;;7.18;70.95
64086;BME280;50333;47.436;21.390;2022-11-20T11:41:43;100118.28;;;7.67;69.88
64086;BME280;50333;47.436;21.390;2022-11-20T11:44:52;100109.00;;;7.16;71.57
64086;BME280;50333;47.436;21.390;2022-11-20T11:48:03;100121.66;;;8.00;69.08
64086;BME280;50333;47.436;21.390;2022-11-20T11:50:56;100125.47;;;8.29;67.73
64086;BME280;50333;47.436;21.390;2022-11-20T11:54:02;100122.44;;;8.00;67.81
64086;BME280;50333;47.436;21.390;2022-11-20T12:00:44;100121.94;;;8.03;67.25
64086;BME280;50333;47.436;21.390;2022-11-20T12:04:24;100130.62;;;8.19;67.74
64086;BME280;50333;47.436;21.390;2022-11-20T12:10:52;100138.97;;;8.74;65.84
64086;BME280;50333;47.436;21.390;2022-11-20T12:14:17;100131.91;;;8.59;66.40
64086;BME280;50333;47.436;21.390;2022-11-20T12:17:16;100120.56;;;8.33;66.95
64086;BME280;50333;47.436;21.390;2022-11-20T12:20:14;100133.50;;;8.71;66.83
64086;BME280;50333;47.436;21.390;2022-11-20T12:27:54;100141.19;;;9.03;65.52
64086;BME280;50333;47.436;21.390;2022-11-20T12:41:53;100131.84;;;9.22;65.13
64086;BME280;50333;47.436;21.390;2022-11-20T13:03:44;100122.50;;;9.16;65.67
64086;BME280;50333;47.436;21.390;2022-11-20T13:07:25;100125.91;;;9.27;64.97
64086;BME280;50333;47.436;21.390;2022-11-20T13:10:43;100120.88;;;9.00;65.77
64086;BME280;50333;47.436;21.390;2022-11-20T13:17:53;100104.25;;;8.96;65.97
64086;BME280;50333;47.436;21.390;2022-11-20T13:21:18;100095.56;;;8.64;66.78
64086;BME280;50333;47.436;21.390;2022-11-20T13:24:50;100104.22;;;8.91;66.09
64086;BME280;50333;47.436;21.390;2022-11-20T13:31:47;100119.50;;;8.77;66.31
64086;BME280;50333;47.436;21.390;2022-11-20T13:35:01;100112.47;;;8.24;69.12
64086;BME280;50333;47.436;21.390;2022-11-20T13:38:50;100113.28;;;8.83;67.07
64086;BME280;50333;47.436;21.390;2022-11-20T13:46:02;100119.28;;;8.83;67.32
64086;BME280;50333;47.436;21.390;2022-11-20T13:49:29;100129.94;;;8.87;66.42
64086;BME280;50333;47.436;21.390;2022-11-20T14:01:16;100130.50;;;8.99;65.74
64086;BME280;50333;47.436;21.390;2022-11-20T14:04:57;100139.03;;;8.90;66.38
64086;BME280;50333;47.436;21.390;2022-11-20T14:08:59;100138.81;;;8.96;65.76
64086;BME280;50333;47.436;21.390;2022-11-20T14:12:34;100134.66;;;8.95;65.56
64086;BME280;50333;47.436;21.390;2022-11-20T14:15:56;100134.91;;;8.94;66.21
64086;BME280;50333;47.436;21.390;2022-11-20T14:20:18;100129.72;;;8.94;65.88
64086;BME280;50333;47.436;21.390;2022-11-20T14:24:19;100141.16;;;8.98;65.70
64086;BME280;50333;47.436;21.390;2022-11-20T14:28:02;100144.31;;;8.47;67.48
64086;BME280;50333;47.436;21.390;2022-11-20T14:31:51;100137.72;;;8.82;66.61
64086;BME280;50333;47.436;21.390;2022-11-20T14:35:46;100143.97;;;8.86;66.21
64086;BME280;50333;47.436;21.390;2022-11-20T14:39:20;100139.28;;;8.88;66.19
64086;BME280;50333;47.436;21.390;2022-11-20T14:42:54;100137.38;;;8.63;66.86
64086;BME280;50333;47.436;21.390;2022-11-20T14:46:17;100139.28;;;8.78;66.49
64086;BME280;50333;47.436;21.390;2022-11-20T14:49:40;100143.25;;;8.48;67.33
64086;BME280;50333;47.436;21.390;2022-11-20T14:53:35;100151.41;;;8.62;66.67
64086;BME280;50333;47.436;21.390;2022-11-20T15:01:00;100160.47;;;8.54;67.39
64086;BME280;50333;47.436;21.390;2022-11-20T15:04:58;100150.31;;;8.53;67.19
64086;BME280;50333;47.436;21.390;2022-11-20T15:08:16;100150.19;;;8.75;66.10
64086;BME280;50333;47.436;21.390;2022-11-20T15:11:36;100150.38;;;8.63;66.67
64086;BME280;50333;47.436;21.390;2022-11-20T15:14:47;100152.66;;;8.54;67.00
64086;BME280;50333;47.436;21.390;2022-11-20T15:18:00;100154.84;;;8.73;66.43
64086;BME280;50333;47.436;21.390;2022-11-20T15:21:16;100154.28;;;8.71;66.86
64086;BME280;50333;47.436;21.390;2022-11-20T15:24:45;100147.81;;;8.68;66.70
64086;BME280;50333;47.436;21.390;2022-11-20T15:28:26;100151.19;;;8.74;66.46
64086;BME280;50333;47.436;21.390;2022-11-20T15:31:55;100158.91;;;8.58;67.18
64086;BME280;50333;47.436;21.390;2022-11-20T15:35:05;100152.19;;;8.62;66.99
64086;BME280;50333;47.436;21.390;2022-11-20T15:37:58;100161.72;;;8.46;67.19
64086;BME280;50333;47.436;21.390;2022-11-20T15:41:11;100157.41;;;8.67;66.87
64086;BME280;50333;47.436;21.390;2022-11-20T15:44:30;100158.91;;;8.58;67.16
64086;BME280;50333;47.436;21.390;2022-11-20T15:48:16;100175.44;;;8.42;67.51
64086;BME280;50333;47.436;21.390;2022-11-20T15:53:05;100164.50;;;8.40;67.45
64086;BME280;50333;47.436;21.390;2022-11-20T15:56:53;100164.81;;;8.43;67.40
64086;BME280;50333;47.436;21.390;2022-11-20T16:00:50;100142.22;;;8.44;66.77
64086;BME280;50333;47.436;21.390;2022-11-20T16:04:22;100139.63;;;8.44;66.87
64086;BME280;50333;47.436;21.390;2022-11-20T16:07:57;100138.97;;;8.26;67.07
64086;BME280;50333;47.436;21.390;2022-11-20T16:11:18;100139.22;;;8.25;66.66
64086;BME280;50333;47.436;21.390;2022-11-20T16:14:10;100148.94;;;8.40;66.41
64086;BME280;50333;47.436;21.390;2022-11-20T16:17:50;100146.38;;;8.45;66.43
64086;BME280;50333;47.436;21.390;2022-11-20T16:21:10;100146.31;;;8.40;66.57
64086;BME280;50333;47.436;21.390;2022-11-20T16:24:44;100148.31;;;8.22;66.89
64086;BME280;50333;47.436;21.390;2022-11-20T16:27:32;100152.28;;;8.40;66.71
64086;BME280;50333;47.436;21.390;2022-11-20T16:31:18;100160.97;;;8.51;66.49
64086;BME280;50333;47.436;21.390;2022-11-20T16:34:26;100170.81;;;8.17;66.92
64086;BME280;50333;47.436;21.390;2022-11-20T16:37:36;100168.59;;;8.30;66.53
64086;BME280;50333;47.436;21.390;2022-11-20T16:40:28;100161.28;;;8.22;66.94
64086;BME280;50333;47.436;21.390;2022-11-20T16:43:57;100155.87;;;8.29;66.63
64086;BME280;50333;47.436;21.390;2022-11-20T16:47:09;100151.91;;;8.21;66.95
64086;BME280;50333;47.436;21.390;2022-11-20T16:50:49;100147.75;;;8.20;67.21
64086;BME280;50333;47.436;21.390;2022-11-20T16:54:00;100136.75;;;8.08;67.45
64086;BME280;50333;47.436;21.390;2022-11-20T16:57:12;100146.41;;;8.12;67.05
64086;BME280;50333;47.436;21.390;2022-11-20T17:00:21;100167.16;;;7.80;68.31
64086;BME280;50333;47.436;21.390;2022-11-20T17:04:21;100166.31;;;8.02;68.08
64086;BME280;50333;47.436;21.390;2022-11-20T17:07:49;100130.91;;;7.90;67.98
64086;BME280;50333;47.436;21.390;2022-11-20T17:11:11;100143.38;;;7.88;67.69
64086;BME280;50333;47.436;21.390;2022-11-20T17:15:01;100146.50;;;7.90;67.28
64086;BME280;50333;47.436;21.390;2022-11-20T17:26:08;100128.84;;;7.87;67.03
64086;BME280;50333;47.436;21.390;2022-11-20T17:29:51;100126.28;;;7.92;67.27
64086;BME280;50333;47.436;21.390;2022-11-20T17:33:58;100132.63;;;8.07;66.74
64086;BME280;50333;47.436;21.390;2022-11-20T17:59:48;100141.09;;;7.97;66.44
64086;BME280;50333;47.436;21.390;2022-11-20T18:02:49;100132.53;;;7.97;66.62
64086;BME280;50333;47.436;21.390;2022-11-20T18:05:46;100128.91;;;7.98;66.41
64086;BME280;50333;47.436;21.390;2022-11-20T18:08:41;100122.03;;;7.22;67.96
64086;BME280;50333;47.436;21.390;2022-11-20T18:12:06;100135.34;;;7.58;67.11
64086;BME280;50333;47.436;21.390;2022-11-20T18:15:49;100135.69;;;7.39;68.13
64086;BME280;50333;47.436;21.390;2022-11-20T18:19:11;100129.69;;;7.66;67.32
64086;BME280;50333;47.436;21.390;2022-11-20T18:22:53;100125.94;;;7.51;67.48
64086;BME280;50333;47.436;21.390;2022-11-20T18:26:39;100126.50;;;7.86;66.03
64086;BME280;50333;47.436;21.390;2022-11-20T18:30:40;100116.97;;;7.97;65.66
64086;BME280;50333;47.436;21.390;2022-11-20T18:33:53;100132.44;;;7.54;66.91
64086;BME280;50333;47.436;21.390;2022-11-20T18:37:42;100131.13;;;7.51;66.21
64086;BME280;50333;47.436;21.390;2022-11-20T18:41:34;100130.84;;;7.80;65.34
64086;BME280;50333;47.436;21.390;2022-11-20T18:46:01;100143.56;;;7.49;66.85
64086;BME280;50333;47.436;21.390;2022-11-20T18:50:05;100140.56;;;7.63;66.25
64086;BME280;50333;47.436;21.390;2022-11-20T18:53:47;100151.16;;;7.88;66.02
64086;BME280;50333;47.436;21.390;2022-11-20T18:57:31;100149.69;;;7.98;65.65
64086;BME280;50333;47.436;21.390;2022-11-20T19:01:06;100145.06;;;7.45;67.36
64086;BME280;50333;47.436;21.390;2022-11-20T19:04:31;100148.03;;;7.86;66.06
64086;BME280;50333;47.436;21.390;2022-11-20T19:08:02;100143.94;;;7.96;65.42
64086;BME280;50333;47.436;21.390;2022-11-20T19:11:05;100133.81;;;7.34;67.05